Time;durP1;ratioP1;P1;durP2;ratioP2;P2;SDS_P1;SDS_P2;PMS_P1;PMS_P2;Temp;Humidity;BMP_temperature;BMP_pressure;BME280_temperature;BME280_humidity;BME280_pressure;Samples;Min_cycle;Max_cycle;Signal;HPM_P1;HPM_P2
2021/04/21 00:01:07;;;;;;;12.97;11.57;;;;;;;9.92;73.01;96240.47;5062566;28;20417;-62
2021/04/21 00:03:34;;;;;;;13.60;11.80;;;;;;;9.94;73.25;96236.63;5053193;28;20434;-56
2021/04/21 00:06:02;;;;;;;12.80;10.93;;;;;;;9.94;72.72;96233.19;5053189;28;20447;-57
2021/04/21 00:08:29;;;;;;;17.07;11.30;;;;;;;9.91;72.82;96231.81;5056892;28;20522;-56
2021/04/21 00:10:55;;;;;;;14.13;12.30;;;;;;;9.90;72.36;96230.22;5064559;28;20483;-62
2021/04/21 00:13:23;;;;;;;17.30;12.00;;;;;;;9.89;72.21;96231.22;5068546;28;20426;-61
2021/04/21 00:15:50;;;;;;;12.50;11.30;;;;;;;9.84;72.61;96225.03;5064150;28;20458;-56
2021/04/21 00:18:17;;;;;;;16.80;12.33;;;;;;;9.74;72.97;96223.00;5055256;28;20440;-56
2021/04/21 00:20:51;;;;;;;15.27;13.00;;;;;;;9.50;74.17;96225.72;5057300;28;20458;-61
2021/04/21 00:23:16;;;;;;;13.30;11.67;;;;;;;9.49;74.83;96216.28;5073706;28;20484;-56
2021/04/21 00:25:43;;;;;;;13.30;10.83;;;;;;;9.62;74.11;96224.75;5068527;28;20431;-56
2021/04/21 00:28:12;;;;;;;18.37;11.40;;;;;;;9.68;74.03;96213.38;5065266;28;20173;-61
2021/04/21 00:30:39;;;;;;;12.67;11.30;;;;;;;9.74;73.39;96214.31;5063344;28;20423;-61
2021/04/21 00:33:06;;;;;;;14.20;11.20;;;;;;;9.69;73.60;96212.38;5057139;28;20412;-59
2021/04/21 00:35:36;;;;;;;13.67;11.80;;;;;;;9.72;73.82;96217.16;5059348;28;20415;-61
2021/04/21 00:38:06;;;;;;;16.93;13.53;;;;;;;9.72;73.88;96205.84;5065782;28;20498;-56
2021/04/21 00:40:43;;;;;;;14.13;12.60;;;;;;;9.80;73.39;96206.31;5075669;28;20423;-62
2021/04/21 00:43:16;;;;;;;14.70;12.87;;;;;;;9.72;73.14;96208.47;5075254;28;20911;-62
2021/04/21 00:45:46;;;;;;;14.90;12.50;;;;;;;9.65;73.12;96207.78;5066739;28;20858;-62
2021/04/21 00:48:34;;;;;;;15.73;13.03;;;;;;;9.71;73.24;96206.91;5063232;28;20984;-57
2021/04/21 00:51:04;;;;;;;16.30;12.87;;;;;;;9.76;72.95;96204.38;5075582;28;20524;-58
2021/04/21 00:53:47;;;;;;;13.10;11.30;;;;;;;9.70;72.80;96203.47;5066587;28;20794;-55
2021/04/21 00:56:37;;;;;;;12.90;11.60;;;;;;;9.64;72.76;96204.34;5076553;28;20414;-61
2021/04/21 00:59:31;;;;;;;13.70;12.27;;;;;;;9.69;73.06;96201.88;5062502;28;20504;-61
2021/04/21 01:02:00;;;;;;;15.90;13.57;;;;;;;9.72;72.67;96193.53;5056416;28;20438;-61
2021/04/21 01:04:25;;;;;;;15.70;12.30;;;;;;;9.71;72.70;96193.78;5056562;28;20407;-56
2021/04/21 01:06:54;;;;;;;17.63;14.07;;;;;;;9.66;73.02;96191.81;5067776;28;20797;-63
2021/04/21 01:09:23;;;;;;;17.70;13.50;;;;;;;9.62;72.69;96195.91;5063589;28;20202;-61
2021/04/21 01:11:50;;;;;;;19.43;13.33;;;;;;;9.50;73.17;96189.00;5074995;28;20464;-61
2021/04/21 01:14:26;;;;;;;15.47;13.43;;;;;;;9.08;74.49;96183.72;5068881;28;20438;-61
2021/04/21 01:17:02;;;;;;;14.10;12.70;;;;;;;8.98;76.00;96191.31;5057204;28;20427;-57
2021/04/21 01:19:49;;;;;;;15.93;13.67;;;;;;;9.07;75.34;96190.00;5065133;28;20652;-60
2021/04/21 01:22:26;;;;;;;14.27;12.60;;;;;;;9.11;74.86;96182.47;5070801;28;20430;-61
2021/04/21 01:25:02;;;;;;;15.90;13.43;;;;;;;9.17;74.66;96187.63;5056162;28;20501;-56
2021/04/21 01:27:43;;;;;;;13.70;12.30;;;;;;;9.16;74.29;96187.84;5070503;28;20433;-62
2021/04/21 01:30:09;;;;;;;14.00;12.50;;;;;;;9.10;74.75;96178.25;5062114;28;20926;-56
2021/04/21 01:32:37;;;;;;;15.93;13.53;;;;;;;9.07;74.76;96182.13;5055915;28;20542;-56
2021/04/21 01:35:05;;;;;;;15.47;12.43;;;;;;;9.03;74.89;96167.06;5060775;28;20427;-56
2021/04/21 01:37:33;;;;;;;16.80;13.83;;;;;;;8.82;75.83;96193.72;5070455;28;20800;-56
2021/04/21 01:40:20;;;;;;;14.90;13.07;;;;;;;8.83;76.83;96187.44;5062213;28;20474;-61
2021/04/21 01:42:51;;;;;;;14.83;12.60;;;;;;;8.90;75.86;96196.03;5056926;28;20459;-56
2021/04/21 01:45:28;;;;;;;16.13;13.23;;;;;;;8.91;75.42;96185.31;5055892;28;20399;-56
2021/04/21 01:47:58;;;;;;;15.70;12.70;;;;;;;8.99;75.41;96186.84;5064124;28;20457;-55
2021/04/21 01:50:23;;;;;;;14.80;13.10;;;;;;;9.00;75.66;96183.22;5073571;28;20442;-56
2021/04/21 01:52:52;;;;;;;17.60;14.00;;;;;;;8.90;76.58;96183.72;5055791;28;21006;-56
2021/04/21 01:55:20;;;;;;;17.10;14.00;;;;;;;8.91;76.48;96181.91;5060010;28;20536;-61
2021/04/21 01:58:06;;;;;;;16.63;13.77;;;;;;;8.81;76.71;96182.44;5074918;28;20432;-62
2021/04/21 02:00:31;;;;;;;18.43;14.47;;;;;;;8.86;76.11;96179.16;5068209;28;20425;-61
2021/04/21 02:03:15;;;;;;;16.47;13.23;;;;;;;8.90;75.99;96188.97;5057428;28;20433;-56
2021/04/21 02:05:46;;;;;;;18.00;13.73;;;;;;;8.93;75.79;96188.53;5070390;28;20235;-61
2021/04/21 02:08:23;;;;;;;20.17;15.27;;;;;;;8.90;76.05;96188.16;5073638;28;20425;-56
2021/04/21 02:11:19;;;;;;;15.47;13.13;;;;;;;8.84;76.40;96181.97;5075039;28;20433;-56
2021/04/21 02:13:50;;;;;;;18.03;14.40;;;;;;;8.87;75.95;96193.84;5073639;28;20422;-60
2021/04/21 02:16:45;;;;;;;18.73;16.03;;;;;;;8.77;76.52;96186.50;5054903;28;20439;-61
2021/04/21 02:19:29;;;;;;;20.30;15.43;;;;;;;8.69;77.24;96192.03;5062632;28;20441;-61
2021/04/21 02:22:09;;;;;;;18.30;14.67;;;;;;;8.67;77.55;96188.03;5074966;28;20400;-56
2021/04/21 02:24:56;;;;;;;16.67;14.70;;;;;;;8.66;77.97;96194.28;5054980;28;20428;-62
2021/04/21 02:27:48;;;;;;;18.10;15.23;;;;;;;8.75;77.99;96185.13;5054818;28;20411;-62
2021/04/21 02:30:25;;;;;;;20.50;15.17;;;;;;;8.84;76.82;96186.44;5058797;28;20452;-62
2021/04/21 02:33:23;;;;;;;20.30;16.27;;;;;;;8.60;78.18;96185.47;5055762;28;20465;-56
2021/04/21 02:36:00;;;;;;;20.37;16.73;;;;;;;8.67;78.70;96188.03;5053953;28;20864;-56
2021/04/21 02:38:40;;;;;;;22.70;17.00;;;;;;;8.75;78.32;96183.28;5054132;28;21086;-56
2021/04/21 02:41:12;;;;;;;19.40;15.80;;;;;;;8.80;77.26;96178.22;5055122;28;20406;-56
2021/04/21 02:44:03;;;;;;;18.23;14.90;;;;;;;8.76;77.28;96184.09;5069512;28;20425;-60
2021/04/21 02:47:26;;;;;;;19.60;15.70;;;;;;;8.78;76.64;96189.91;5073631;28;20427;-56
2021/04/21 02:50:05;;;;;;;22.33;16.50;;;;;;;8.72;77.58;96186.34;5051909;28;20793;-60
2021/04/21 02:52:50;;;;;;;20.00;16.30;;;;;;;8.64;76.87;96189.25;5052173;28;20470;-61
2021/04/21 02:55:41;;;;;;;23.13;17.27;;;;;;;8.59;77.02;96193.56;5052304;28;20421;-56
2021/04/21 02:58:38;;;;;;;20.37;16.77;;;;;;;8.54;77.78;96188.16;5057465;28;20441;-56
2021/04/21 03:01:16;;;;;;;22.80;18.00;;;;;;;8.24;79.33;96188.84;5072211;28;20414;-60
2021/04/21 03:03:50;;;;;;;20.70;16.50;;;;;;;8.08;81.12;96184.13;5070075;28;20440;-61
2021/04/21 03:06:31;;;;;;;21.27;16.87;;;;;;;7.99;81.60;96180.16;5053144;28;20508;-56
2021/04/21 03:09:05;;;;;;;23.50;17.67;;;;;;;8.14;80.94;96178.03;5055982;28;20543;-61
2021/04/21 03:11:31;;;;;;;27.47;18.83;;;;;;;8.27;80.63;96177.16;5054973;28;20972;-56
2021/04/21 03:14:03;;;;;;;22.07;17.70;;;;;;;8.40;79.63;96170.97;5065919;28;20417;-56
2021/04/21 03:16:32;;;;;;;25.00;18.70;;;;;;;8.24;80.29;96178.38;5055771;28;20440;-56
2021/04/21 03:19:04;;;;;;;21.27;16.80;;;;;;;8.30;79.25;96180.13;5063203;28;20939;-60
2021/04/21 03:21:32;;;;;;;22.70;17.83;;;;;;;8.40;78.36;96178.84;5061855;28;20482;-61
2021/04/21 03:24:10;;;;;;;21.70;17.40;;;;;;;8.48;78.02;96175.94;5074415;28;20760;-61
2021/04/21 03:26:40;;;;;;;22.60;17.97;;;;;;;8.45;77.37;96179.78;5073947;28;20420;-61
2021/04/21 03:29:12;;;;;;;22.63;18.20;;;;;;;8.46;78.57;96177.97;5073217;28;20436;-61
2021/04/21 03:31:41;;;;;;;27.10;17.67;;;;;;;8.49;78.60;96172.31;5061443;28;20460;-61
2021/04/21 03:34:12;;;;;;;20.60;17.50;;;;;;;8.56;77.39;96168.59;5054044;28;20405;-62
2021/04/21 03:36:38;;;;;;;22.33;17.53;;;;;;;8.63;77.30;96171.94;5053768;28;20917;-61
2021/04/21 03:39:05;;;;;;;23.63;17.13;;;;;;;8.57;76.63;96164.16;5052973;28;20428;-56
2021/04/21 03:41:30;;;;;;;23.73;17.93;;;;;;;8.47;77.31;96161.25;5053597;28;20757;-56
2021/04/21 03:43:56;;;;;;;24.00;18.07;;;;;;;8.40;76.99;96174.41;5054598;28;20422;-56
2021/04/21 03:46:23;;;;;;;22.70;17.83;;;;;;;8.31;78.09;96163.41;5065170;28;20208;-61
2021/04/21 03:48:49;;;;;;;25.43;18.10;;;;;;;8.30;78.63;96161.81;5073031;28;20239;-60
2021/04/21 03:51:17;;;;;;;23.30;18.70;;;;;;;8.34;77.67;96170.03;5073223;28;20464;-61
2021/04/21 03:53:44;;;;;;;25.10;17.77;;;;;;;8.36;77.60;96161.94;5073367;28;20968;-61
2021/04/21 03:56:14;;;;;;;19.30;16.93;;;;;;;8.39;76.96;96159.69;5073424;28;20405;-56
2021/04/21 03:58:41;;;;;;;20.50;17.40;;;;;;;8.48;76.84;96155.00;5057350;28;20438;-61
2021/04/21 04:01:14;;;;;;;24.17;18.03;;;;;;;8.51;76.38;96152.75;5065008;28;20783;-61
2021/04/21 04:03:46;;;;;;;25.43;18.70;;;;;;;8.54;76.13;96157.53;5073480;28;20409;-56
2021/04/21 04:06:23;;;;;;;24.20;19.37;;;;;;;8.55;76.52;96150.50;5073505;28;20423;-56
2021/04/21 04:08:51;;;;;;;23.00;17.40;;;;;;;8.50;75.93;96155.59;5072929;28;20919;-56
2021/04/21 04:11:22;;;;;;;20.00;16.83;;;;;;;8.36;76.39;96154.09;5071120;28;20461;-61
2021/04/21 04:13:48;;;;;;;25.40;18.63;;;;;;;8.24;77.19;96170.50;5073381;28;20495;-60
2021/04/21 04:16:14;;;;;;;22.70;17.83;;;;;;;8.17;77.71;96166.34;5057590;28;20901;-61
2021/04/21 04:18:43;;;;;;;22.83;17.87;;;;;;;8.08;78.72;96162.41;5071495;28;20213;-61
2021/04/21 04:21:11;;;;;;;22.37;18.43;;;;;;;8.24;76.84;96159.25;5073359;28;20401;-55
2021/04/21 04:23:39;;;;;;;22.80;17.73;;;;;;;8.27;76.93;96164.88;5067351;28;20433;-55
2021/04/21 04:26:06;;;;;;;24.10;18.63;;;;;;;8.36;76.16;96164.56;5053055;28;20418;-56
2021/04/21 04:28:33;;;;;;;22.30;17.70;;;;;;;8.29;77.15;96160.22;5053068;28;20450;-56
2021/04/21 04:31:00;;;;;;;22.20;17.47;;;;;;;8.37;76.81;96163.56;5052878;28;20441;-56
2021/04/21 04:33:28;;;;;;;24.50;18.40;;;;;;;8.42;75.93;96168.94;5053081;28;20425;-56
2021/04/21 04:35:53;;;;;;;21.27;17.83;;;;;;;8.47;75.83;96163.84;5052836;28;20438;-56
2021/04/21 04:38:19;;;;;;;24.40;19.17;;;;;;;8.37;75.93;96166.97;5052611;28;20459;-56
2021/04/21 04:40:44;;;;;;;22.60;17.47;;;;;;;8.39;76.15;96164.94;5056811;28;20228;-56
2021/04/21 04:43:10;;;;;;;25.93;19.30;;;;;;;8.32;75.70;96172.88;5073048;28;20172;-61
2021/04/21 04:45:39;;;;;;;22.83;17.33;;;;;;;8.26;77.08;96171.09;5062955;28;20241;-61
2021/04/21 04:48:14;;;;;;;22.60;18.50;;;;;;;8.18;77.54;96175.78;5052681;28;20409;-56
2021/04/21 04:50:41;;;;;;;22.80;17.33;;;;;;;8.27;76.87;96172.72;5052898;28;20424;-61
2021/04/21 04:53:07;;;;;;;22.37;17.47;;;;;;;8.33;77.08;96177.06;5052936;28;20461;-56
2021/04/21 04:55:33;;;;;;;22.57;18.03;;;;;;;8.29;77.01;96181.16;5068133;28;20428;-56
2021/04/21 04:58:02;;;;;;;21.70;17.87;;;;;;;8.34;76.56;96183.13;5072528;28;20412;-61
2021/04/21 05:00:28;;;;;;;19.23;17.03;;;;;;;8.45;76.98;96184.22;5062009;28;20523;-61
2021/04/21 05:02:59;;;;;;;24.60;19.53;;;;;;;8.52;76.77;96193.63;5052773;28;20492;-61
2021/04/21 05:05:26;;;;;;;27.97;19.10;;;;;;;8.59;76.21;96188.31;5052931;28;20223;-56
2021/04/21 05:08:03;;;;;;;22.10;18.37;;;;;;;8.66;76.39;96186.44;5052368;28;20896;-56
2021/04/21 05:10:31;;;;;;;24.50;19.17;;;;;;;8.75;76.46;96188.53;5070670;28;20444;-61
2021/04/21 05:13:02;;;;;;;26.43;18.50;;;;;;;8.83;76.29;96197.91;5076204;28;20444;-56
2021/04/21 05:15:39;;;;;;;24.40;18.77;;;;;;;8.84;76.95;96196.91;5062275;28;20944;-61
2021/04/21 05:18:23;;;;;;;23.40;18.37;;;;;;;8.92;76.55;96196.59;5055748;28;20881;-56
2021/04/21 05:21:07;;;;;;;24.43;17.47;;;;;;;8.95;76.53;96191.72;5056289;28;20412;-56
2021/04/21 05:23:53;;;;;;;25.30;18.53;;;;;;;8.93;77.09;96199.00;5070935;28;20486;-61
2021/04/21 05:26:52;;;;;;;22.80;18.40;;;;;;;9.04;77.09;96200.88;5072611;28;20522;-56
2021/04/21 05:29:18;;;;;;;23.87;19.27;;;;;;;9.14;76.76;96203.00;5055624;28;20485;-61
2021/04/21 05:32:04;;;;;;;24.50;19.40;;;;;;;9.24;76.71;96200.66;5072234;28;20495;-62
2021/04/21 05:34:54;;;;;;;24.13;19.30;;;;;;;9.34;76.40;96207.00;5076041;28;20211;-62
2021/04/21 05:37:28;;;;;;;23.73;19.77;;;;;;;9.37;76.32;96210.97;5074302;28;20767;-61
2021/04/21 05:40:31;;;;;;;23.83;19.80;;;;;;;9.52;76.21;96211.38;5073866;28;20499;-62
2021/04/21 05:43:26;;;;;;;24.37;19.50;;;;;;;9.60;76.23;96216.31;5075856;28;20974;-62
2021/04/21 05:46:13;;;;;;;22.80;18.77;;;;;;;9.67;76.24;96210.97;5063232;28;20505;-61
2021/04/21 05:48:53;;;;;;;30.13;21.23;;;;;;;9.74;76.68;96204.63;5055268;28;20912;-56
2021/04/21 05:51:40;;;;;;;25.50;20.47;;;;;;;9.82;76.01;96212.16;5055581;28;20512;-62
2021/04/21 05:54:26;;;;;;;27.10;20.80;;;;;;;9.90;75.68;96213.66;5055829;28;20403;-57
2021/04/21 05:57:20;;;;;;;28.27;21.70;;;;;;;10.05;75.83;96214.03;5061727;28;20462;-56
2021/04/21 05:59:45;;;;;;;23.40;20.13;;;;;;;10.15;75.33;96220.38;5075484;28;20416;-56
2021/04/21 06:02:12;;;;;;;24.50;20.30;;;;;;;10.22;76.00;96215.00;5075493;28;20399;-56
2021/04/21 06:04:38;;;;;;;26.70;21.23;;;;;;;10.32;75.71;96210.81;5075807;28;20171;-56
2021/04/21 06:07:09;;;;;;;26.47;19.60;;;;;;;10.44;75.66;96220.50;5074956;28;20466;-57
2021/04/21 06:09:35;;;;;;;27.30;21.20;;;;;;;10.54;75.61;96224.19;5057732;28;20202;-56
2021/04/21 06:12:11;;;;;;;26.97;21.03;;;;;;;10.67;75.64;96217.91;5064824;28;21029;-62
2021/04/21 06:14:38;;;;;;;30.93;22.33;;;;;;;10.75;75.53;96220.16;5063936;28;20937;-62
2021/04/21 06:17:03;;;;;;;27.57;21.07;;;;;;;10.87;75.40;96218.34;5054808;28;20820;-62
2021/04/21 06:19:29;;;;;;;27.50;22.40;;;;;;;10.99;75.18;96219.09;5055112;28;20441;-56
2021/04/21 06:21:55;;;;;;;30.43;21.67;;;;;;;11.06;74.58;96223.22;5054619;28;20230;-56
2021/04/21 06:24:29;;;;;;;29.07;20.23;;;;;;;11.19;74.71;96227.41;5055023;28;20175;-56
2021/04/21 06:27:13;;;;;;;29.00;22.13;;;;;;;11.29;74.08;96231.03;5054836;28;20236;-57
2021/04/21 06:29:39;;;;;;;28.80;22.40;;;;;;;11.41;74.14;96233.66;5073468;28;20911;-62
2021/04/21 06:32:10;;;;;;;27.63;21.43;;;;;;;11.53;73.13;96236.22;5073412;28;20484;-56
2021/04/21 06:34:35;;;;;;;27.33;22.47;;;;;;;11.60;72.21;96228.97;5067628;28;20794;-56
2021/04/21 06:37:01;;;;;;;29.40;22.77;;;;;;;11.69;72.28;96235.50;5070550;28;20428;-63
2021/04/21 06:39:30;;;;;;;27.60;21.20;;;;;;;11.85;71.64;96240.81;5054662;28;20227;-62
2021/04/21 06:41:58;;;;;;;28.50;22.40;;;;;;;11.94;70.88;96244.66;5065629;28;20202;-61
2021/04/21 06:44:47;;;;;;;29.07;21.73;;;;;;;12.05;71.17;96241.16;5072811;28;20421;-61
2021/04/21 06:47:24;;;;;;;30.07;23.53;;;;;;;12.02;69.73;96244.28;5074332;28;20445;-56
2021/04/21 06:50:08;;;;;;;26.97;21.77;;;;;;;12.18;70.03;96246.16;5074251;28;20448;-61
2021/04/21 06:52:35;;;;;;;25.17;21.70;;;;;;;11.96;70.82;96249.69;5067120;28;20485;-62
2021/04/21 06:55:09;;;;;;;25.77;21.07;;;;;;;12.22;69.70;96236.72;5071860;28;20841;-62
2021/04/21 06:57:35;;;;;;;25.70;20.67;;;;;;;12.41;69.41;96240.72;5073913;28;20409;-56
2021/04/21 07:00:06;;;;;;;26.63;21.80;;;;;;;12.48;68.98;96235.31;5074336;28;20846;-57
2021/04/21 07:02:54;;;;;;;25.73;20.87;;;;;;;12.50;67.27;96238.47;5068490;28;20182;-56
2021/04/21 07:05:31;;;;;;;26.23;21.17;;;;;;;12.62;66.96;96246.31;5067431;28;20475;-56
2021/04/21 07:08:00;;;;;;;25.83;20.50;;;;;;;12.67;66.27;96239.28;5073706;28;20879;-62
2021/04/21 07:10:27;;;;;;;27.53;22.27;;;;;;;12.67;66.04;96246.38;5074046;28;20425;-62
2021/04/21 07:12:53;;;;;;;22.30;20.00;;;;;;;12.67;65.68;96241.91;5074113;28;20522;-57
2021/04/21 07:15:20;;;;;;;23.10;19.70;;;;;;;12.36;66.17;96251.19;5071337;28;20507;-56
2021/04/21 07:17:48;;;;;;;26.10;21.40;;;;;;;12.67;67.03;96246.38;5070700;28;20466;-62
2021/04/21 07:20:14;;;;;;;24.80;21.00;;;;;;;12.91;66.33;96245.97;5060886;28;20932;-61
2021/04/21 07:22:41;;;;;;;24.80;20.47;;;;;;;13.09;66.34;96245.72;5053977;28;20436;-61
2021/04/21 07:25:08;;;;;;;28.00;20.87;;;;;;;13.17;64.46;96245.28;5053969;28;20750;-57
2021/04/21 07:27:35;;;;;;;23.33;20.57;;;;;;;13.30;63.95;96244.09;5053488;28;20432;-57
2021/04/21 07:30:00;;;;;;;24.37;20.10;;;;;;;13.33;63.58;96246.28;5053667;28;20430;-61
2021/04/21 07:32:28;;;;;;;23.60;19.87;;;;;;;13.27;62.14;96252.53;5059344;28;20812;-56
2021/04/21 07:35:03;;;;;;;23.40;20.20;;;;;;;13.26;60.10;96250.94;5053363;28;20163;-62
2021/04/21 07:37:35;;;;;;;22.07;19.50;;;;;;;13.40;61.07;96244.25;5053359;28;20784;-57
2021/04/21 07:40:01;;;;;;;24.20;20.63;;;;;;;13.13;62.05;96246.03;5056564;28;20643;-62
2021/04/21 07:42:33;;;;;;;22.37;19.77;;;;;;;13.20;61.05;96247.44;5073654;28;20409;-61
2021/04/21 07:44:58;;;;;;;20.87;18.67;;;;;;;13.03;62.74;96257.22;5063500;28;20184;-61
2021/04/21 07:47:25;;;;;;;23.17;20.73;;;;;;;13.21;62.51;96251.66;5071161;28;20421;-56
2021/04/21 07:50:01;;;;;;;29.90;21.03;;;;;;;13.56;61.10;96251.31;5073264;28;20293;-62
2021/04/21 07:52:29;;;;;;;21.90;18.50;;;;;;;13.79;60.73;96248.38;5073594;28;20582;-61
2021/04/21 07:55:05;;;;;;;22.57;19.17;;;;;;;14.00;60.29;96247.56;5062784;28;20442;-57
2021/04/21 07:57:32;;;;;;;21.53;18.80;;;;;;;14.06;60.52;96253.66;5064177;28;20416;-62
2021/04/21 07:59:57;;;;;;;21.23;18.47;;;;;;;14.25;59.90;96255.72;5072085;28;20433;-57
2021/04/21 08:02:23;;;;;;;20.17;17.53;;;;;;;13.76;58.13;96250.72;5073407;28;20401;-62
2021/04/21 08:04:53;;;;;;;20.73;18.63;;;;;;;13.51;60.34;96255.72;5073327;28;20210;-62
2021/04/21 08:07:34;;;;;;;19.80;16.60;;;;;;;14.10;57.89;96255.56;5073060;28;20648;-62
2021/04/21 08:10:03;;;;;;;18.20;16.27;;;;;;;14.44;57.84;96250.88;5063596;28;20436;-59
2021/04/21 08:12:31;;;;;;;19.97;17.87;;;;;;;14.55;58.51;96249.13;5055509;28;20541;-58
2021/04/21 08:15:06;;;;;;;19.20;16.80;;;;;;;14.79;57.46;96250.34;5053334;28;20413;-58
2021/04/21 08:17:57;;;;;;;19.63;16.90;;;;;;;14.94;56.14;96248.63;5052912;28;20401;-58
2021/04/21 08:20:29;;;;;;;22.33;18.47;;;;;;;15.16;57.05;96257.19;5053278;28;20421;-58
2021/04/21 08:23:00;;;;;;;22.63;19.00;;;;;;;15.19;54.72;96245.28;5063149;28;20428;-58
2021/04/21 08:25:26;;;;;;;20.90;16.77;;;;;;;15.24;55.61;96247.97;5059604;28;20432;-62
2021/04/21 08:27:52;;;;;;;17.70;15.87;;;;;;;15.34;57.70;96255.97;5069206;28;20417;-58
2021/04/21 08:30:18;;;;;;;16.20;14.50;;;;;;;15.47;53.64;96260.84;5069338;28;20930;-63
2021/04/21 08:32:44;;;;;;;14.47;12.97;;;;;;;15.45;50.93;96255.78;5069462;28;20488;-62
2021/04/21 08:35:12;;;;;;;16.37;14.60;;;;;;;15.50;52.41;96251.56;5068939;28;20486;-59
2021/04/21 08:37:37;;;;;;;15.60;13.77;;;;;;;15.55;51.70;96256.88;5057095;28;20541;-62
2021/04/21 08:40:04;;;;;;;12.77;11.50;;;;;;;15.55;50.39;96257.69;5064625;28;20455;-62
2021/04/21 08:42:31;;;;;;;15.50;12.20;;;;;;;15.72;50.01;96252.97;5049362;28;20630;-63
2021/04/21 08:44:57;;;;;;;14.17;12.80;;;;;;;15.71;47.58;96259.31;5050428;28;20501;-63
2021/04/21 08:47:25;;;;;;;13.37;12.07;;;;;;;15.83;46.22;96259.91;5053037;28;20492;-61
2021/04/21 08:49:54;;;;;;;13.30;12.00;;;;;;;15.96;46.75;96259.38;5053158;28;20441;-61
2021/04/21 08:52:22;;;;;;;14.97;13.47;;;;;;;16.04;51.35;96260.72;5054152;28;20527;-67
2021/04/21 08:54:53;;;;;;;15.17;13.57;;;;;;;16.27;49.92;96257.59;5068576;28;20429;-69
2021/04/21 08:57:19;;;;;;;16.03;14.10;;;;;;;16.36;45.82;96261.31;5072195;28;20495;-68
2021/04/21 08:59:45;;;;;;;14.17;12.73;;;;;;;16.50;47.08;96264.28;5073016;28;20455;-63
2021/04/21 09:02:12;;;;;;;12.77;11.33;;;;;;;16.68;45.72;96261.09;5073101;28;20178;-67
2021/04/21 09:04:38;;;;;;;14.13;12.73;;;;;;;16.73;48.25;96261.09;5058588;28;20437;-66
2021/04/21 09:07:05;;;;;;;14.63;13.13;;;;;;;16.80;48.16;96261.59;5052772;28;20524;-61
2021/04/21 09:09:32;;;;;;;14.50;13.07;;;;;;;16.84;48.96;96266.13;5068484;28;20448;-67
2021/04/21 09:12:00;;;;;;;16.80;15.10;;;;;;;16.97;45.97;96260.28;5072732;28;20449;-66
2021/04/21 09:14:26;;;;;;;14.63;13.23;;;;;;;17.12;47.80;96264.78;5072806;28;20550;-66
2021/04/21 09:16:52;;;;;;;15.50;13.50;;;;;;;17.21;48.33;96257.84;5072621;28;20417;-65
2021/04/21 09:19:18;;;;;;;18.20;16.37;;;;;;;17.46;45.05;96258.53;5063703;28;21012;-62
2021/04/21 09:21:43;;;;;;;16.13;14.53;;;;;;;17.67;44.04;96256.66;5067930;28;20179;-62
2021/04/21 09:24:25;;;;;;;18.73;15.20;;;;;;;17.72;45.61;96259.28;5072692;28;20181;-62
2021/04/21 09:26:50;;;;;;;15.40;13.80;;;;;;;17.74;46.91;96251.03;5065121;28;20202;-65
2021/04/21 09:29:27;;;;;;;16.77;14.70;;;;;;;17.94;46.60;96253.56;5072095;28;20879;-61
2021/04/21 09:32:09;;;;;;;15.70;14.10;;;;;;;17.90;48.57;96250.69;5072599;28;20203;-61
2021/04/21 09:34:35;;;;;;;17.77;15.97;;;;;;;17.90;48.57;96256.00;5062458;28;20426;-58
2021/04/21 09:37:00;;;;;;;17.93;16.03;;;;;;;18.08;43.95;96246.59;5062446;28;20431;-57
2021/04/21 09:39:26;;;;;;;18.00;15.97;;;;;;;17.92;42.12;96234.44;5052267;28;20199;-60
2021/04/21 09:42:03;;;;;;;14.90;13.40;;;;;;;18.20;44.70;96245.19;5055440;28;20238;-58
2021/04/21 09:44:30;;;;;;;15.53;13.93;;;;;;;18.35;44.75;96242.41;5060981;28;20179;-61
2021/04/21 09:47:08;;;;;;;19.20;15.57;;;;;;;18.20;44.78;96244.41;5061082;28;20807;-61
2021/04/21 09:49:40;;;;;;;17.03;14.33;;;;;;;18.53;45.43;96241.00;5059709;28;20541;-61
2021/04/21 09:52:11;;;;;;;15.93;14.40;;;;;;;18.88;43.75;96240.69;5072151;28;20460;-58
2021/04/21 09:54:42;;;;;;;16.73;14.97;;;;;;;18.95;42.97;96235.03;5071832;28;20412;-61
2021/04/21 09:57:19;;;;;;;16.80;15.10;;;;;;;19.10;45.96;96248.19;5074308;28;20405;-57
2021/04/21 10:00:01;;;;;;;16.47;14.63;;;;;;;19.25;43.67;96240.84;5068201;28;20437;-59
2021/04/21 10:02:40;;;;;;;14.27;12.87;;;;;;;19.08;41.96;96234.34;5055624;28;20468;-57
2021/04/21 10:05:34;;;;;;;15.20;13.70;;;;;;;19.26;42.98;96233.63;5055464;28;20868;-57
2021/04/21 10:08:15;;;;;;;15.83;14.20;;;;;;;19.66;43.10;96232.41;5065243;28;20414;-60
2021/04/21 10:10:43;;;;;;;16.37;14.87;;;;;;;19.58;38.90;96227.72;5056466;28;20896;-60
2021/04/21 10:13:26;;;;;;;15.73;14.13;;;;;;;19.90;40.16;96230.47;5056416;28;21043;-57
2021/04/21 10:15:52;;;;;;;15.90;14.30;;;;;;;20.12;39.07;96223.50;5070540;28;20426;-60
2021/04/21 10:18:17;;;;;;;17.63;15.90;;;;;;;19.78;40.80;96233.59;5053311;28;20434;-57
2021/04/21 10:20:45;;;;;;;17.10;15.30;;;;;;;20.00;40.99;96241.03;5067219;28;20179;-59
2021/04/21 10:23:13;;;;;;;16.73;15.13;;;;;;;20.05;41.45;96224.94;5063751;28;20174;-61
2021/04/21 10:25:41;;;;;;;16.73;15.13;;;;;;;20.09;38.14;96234.75;5064685;28;20904;-61
2021/04/21 10:28:08;;;;;;;15.97;14.40;;;;;;;19.91;41.32;96238.19;5064761;28;20417;-58
2021/04/21 10:30:35;;;;;;;16.10;14.60;;;;;;;20.02;40.04;96238.88;5061481;28;20511;-61
2021/04/21 10:33:01;;;;;;;14.50;13.10;;;;;;;20.19;37.76;96231.19;5054608;28;20462;-58
2021/04/21 10:35:28;;;;;;;15.23;13.80;;;;;;;19.91;37.55;96235.53;5059487;28;20457;-58
2021/04/21 10:37:54;;;;;;;15.67;13.47;;;;;;;20.07;38.67;96230.78;5054312;28;20892;-58
2021/04/21 10:40:28;;;;;;;14.57;12.93;;;;;;;19.62;38.53;96228.72;5066312;28;20491;-57
2021/04/21 10:43:06;;;;;;;14.13;12.33;;;;;;;19.71;38.86;96233.13;5054844;28;20772;-62
2021/04/21 10:45:41;;;;;;;14.70;13.30;;;;;;;19.55;39.67;96234.38;5065407;28;20481;-60
2021/04/21 10:48:07;;;;;;;13.87;12.57;;;;;;;19.53;40.26;96233.88;5052878;28;20780;-57
2021/04/21 10:50:41;;;;;;;15.07;13.60;;;;;;;19.55;38.31;96217.63;5054383;28;20432;-60
2021/04/21 10:53:17;;;;;;;15.13;12.67;;;;;;;19.56;38.59;96224.53;5054622;28;20198;-60
2021/04/21 10:55:43;;;;;;;15.30;13.10;;;;;;;19.73;39.12;96216.88;5063457;28;20431;-60
2021/04/21 10:58:12;;;;;;;14.73;13.33;;;;;;;19.61;37.60;96211.94;5073922;28;20963;-58
2021/04/21 11:00:38;;;;;;;13.60;12.20;;;;;;;19.42;38.16;96211.88;5073536;28;20183;-57
2021/04/21 11:03:09;;;;;;;13.67;12.33;;;;;;;19.27;37.54;96205.91;5057314;28;20418;-60
2021/04/21 11:05:41;;;;;;;14.00;12.53;;;;;;;19.63;37.89;96214.31;5054489;28;20398;-61
2021/04/21 11:08:18;;;;;;;14.67;12.80;;;;;;;19.89;36.17;96211.00;5052914;28;20409;-57
2021/04/21 11:10:54;;;;;;;14.00;12.60;;;;;;;20.15;35.39;96206.13;5067569;28;20417;-58
2021/04/21 11:13:25;;;;;;;14.40;12.90;;;;;;;19.88;35.93;96201.44;5074223;28;20803;-58
2021/04/21 11:15:52;;;;;;;15.73;13.57;;;;;;;19.72;35.64;96201.94;5063102;28;20434;-57
2021/04/21 11:18:23;;;;;;;14.00;12.70;;;;;;;20.07;36.70;96204.91;5053700;28;20440;-58
2021/04/21 11:20:49;;;;;;;13.13;11.83;;;;;;;20.39;37.03;96204.19;5054077;28;20434;-58
2021/04/21 11:24:02;;;;;;;14.00;12.60;;;;;;;20.78;34.86;96190.44;5054024;28;20811;-60
2021/04/21 11:26:28;;;;;;;13.90;12.43;;;;;;;20.66;32.55;96190.91;5053892;28;20172;-60
2021/04/21 11:29:21;;;;;;;14.13;12.70;;;;;;;20.59;34.35;96189.69;5053471;28;20426;-57
2021/04/21 11:32:08;;;;;;;15.70;14.10;;;;;;;20.65;35.18;96197.34;5073684;28;20448;-58
2021/04/21 11:34:35;;;;;;;12.90;11.70;;;;;;;20.73;32.72;96196.66;5063129;28;20508;-60
2021/04/21 11:37:08;;;;;;;14.50;13.20;;;;;;;20.82;33.00;96186.09;5053253;28;20417;-60
2021/04/21 11:39:42;;;;;;;13.03;11.73;;;;;;;20.81;37.08;96188.00;5053678;28;20449;-61
2021/04/21 11:42:40;;;;;;;13.50;12.20;;;;;;;20.83;34.91;96182.34;5069546;28;20432;-60
2021/04/21 11:45:11;;;;;;;13.73;12.43;;;;;;;21.17;35.89;96177.47;5072849;28;20456;-60
2021/04/21 11:47:45;;;;;;;12.07;10.87;;;;;;;21.44;35.29;96178.25;5059804;28;20907;-60